sensor_id;sensor_type;location;lat;lon;timestamp;P1;durP1;ratioP1;P2;durP2;ratioP2
22677;SDS011;26259;50.214;18.620;2022-12-22T00:01:27;63.77;;;32.43;;
22677;SDS011;26259;50.214;18.620;2022-12-22T00:04:11;68.07;;;34.47;;
22677;SDS011;26259;50.214;18.620;2022-12-22T00:06:55;59.03;;;32.00;;
22677;SDS011;26259;50.214;18.620;2022-12-22T00:09:40;70.93;;;35.63;;
22677;SDS011;26259;50.214;18.620;2022-12-22T00:12:24;70.87;;;36.57;;
22677;SDS011;26259;50.214;18.620;2022-12-22T00:15:12;66.37;;;34.53;;
22677;SDS011;26259;50.214;18.620;2022-12-22T00:18:00;72.47;;;34.93;;
22677;SDS011;26259;50.214;18.620;2022-12-22T00:20:45;65.83;;;34.97;;
22677;SDS011;26259;50.214;18.620;2022-12-22T00:23:29;71.03;;;35.87;;
22677;SDS011;26259;50.214;18.620;2022-12-22T00:26:14;75.67;;;39.93;;
22677;SDS011;26259;50.214;18.620;2022-12-22T00:28:59;67.83;;;37.67;;
22677;SDS011;26259;50.214;18.620;2022-12-22T00:31:44;67.17;;;35.77;;
22677;SDS011;26259;50.214;18.620;2022-12-22T00:34:28;72.87;;;37.13;;
22677;SDS011;26259;50.214;18.620;2022-12-22T00:37:15;70.83;;;37.20;;
22677;SDS011;26259;50.214;18.620;2022-12-22T00:39:59;68.50;;;35.23;;
22677;SDS011;26259;50.214;18.620;2022-12-22T00:42:44;68.53;;;35.67;;
22677;SDS011;26259;50.214;18.620;2022-12-22T00:45:28;75.47;;;39.57;;
22677;SDS011;26259;50.214;18.620;2022-12-22T00:48:23;77.23;;;37.77;;
22677;SDS011;26259;50.214;18.620;2022-12-22T00:51:09;92.87;;;44.90;;
22677;SDS011;26259;50.214;18.620;2022-12-22T00:53:54;91.53;;;43.97;;
22677;SDS011;26259;50.214;18.620;2022-12-22T00:56:39;82.17;;;42.47;;
22677;SDS011;26259;50.214;18.620;2022-12-22T00:59:23;92.23;;;46.67;;
22677;SDS011;26259;50.214;18.620;2022-12-22T01:02:08;75.33;;;38.43;;
22677;SDS011;26259;50.214;18.620;2022-12-22T01:04:52;78.07;;;41.13;;
22677;SDS011;26259;50.214;18.620;2022-12-22T01:07:36;65.33;;;36.43;;
22677;SDS011;26259;50.214;18.620;2022-12-22T01:10:20;67.53;;;35.50;;
22677;SDS011;26259;50.214;18.620;2022-12-22T01:13:09;79.60;;;45.10;;
22677;SDS011;26259;50.214;18.620;2022-12-22T01:15:53;73.93;;;41.10;;
22677;SDS011;26259;50.214;18.620;2022-12-22T01:18:37;67.60;;;36.90;;
22677;SDS011;26259;50.214;18.620;2022-12-22T01:21:21;64.03;;;34.90;;
22677;SDS011;26259;50.214;18.620;2022-12-22T01:24:12;59.50;;;33.13;;
22677;SDS011;26259;50.214;18.620;2022-12-22T01:26:58;58.90;;;32.13;;
22677;SDS011;26259;50.214;18.620;2022-12-22T01:29:42;69.53;;;34.20;;
22677;SDS011;26259;50.214;18.620;2022-12-22T01:32:26;61.90;;;33.97;;
22677;SDS011;26259;50.214;18.620;2022-12-22T01:35:20;65.77;;;35.97;;
22677;SDS011;26259;50.214;18.620;2022-12-22T01:38:06;70.17;;;40.93;;
22677;SDS011;26259;50.214;18.620;2022-12-22T01:40:51;57.67;;;31.37;;
22677;SDS011;26259;50.214;18.620;2022-12-22T01:43:36;52.40;;;29.20;;
22677;SDS011;26259;50.214;18.620;2022-12-22T01:46:24;48.67;;;27.80;;
22677;SDS011;26259;50.214;18.620;2022-12-22T01:49:21;54.77;;;30.07;;
22677;SDS011;26259;50.214;18.620;2022-12-22T01:52:09;56.23;;;32.70;;
22677;SDS011;26259;50.214;18.620;2022-12-22T01:54:55;62.70;;;37.80;;
22677;SDS011;26259;50.214;18.620;2022-12-22T01:57:47;54.97;;;28.33;;
22677;SDS011;26259;50.214;18.620;2022-12-22T02:00:32;46.73;;;24.70;;
22677;SDS011;26259;50.214;18.620;2022-12-22T02:03:16;43.83;;;25.60;;
22677;SDS011;26259;50.214;18.620;2022-12-22T02:06:12;45.63;;;27.40;;
22677;SDS011;26259;50.214;18.620;2022-12-22T02:09:05;44.97;;;25.97;;
22677;SDS011;26259;50.214;18.620;2022-12-22T02:12:08;42.43;;;24.17;;
22677;SDS011;26259;50.214;18.620;2022-12-22T02:18:39;45.83;;;26.00;;
22677;SDS011;26259;50.214;18.620;2022-12-22T02:21:30;42.93;;;23.43;;
22677;SDS011;26259;50.214;18.620;2022-12-22T02:24:32;42.50;;;23.33;;
22677;SDS011;26259;50.214;18.620;2022-12-22T02:27:24;45.63;;;26.40;;
22677;SDS011;26259;50.214;18.620;2022-12-22T02:30:10;40.10;;;24.40;;
22677;SDS011;26259;50.214;18.620;2022-12-22T02:32:55;37.07;;;22.03;;
22677;SDS011;26259;50.214;18.620;2022-12-22T02:44:25;44.20;;;27.57;;
22677;SDS011;26259;50.214;18.620;2022-12-22T02:50:13;53.07;;;33.57;;
22677;SDS011;26259;50.214;18.620;2022-12-22T02:53:12;45.80;;;26.47;;
22677;SDS011;26259;50.214;18.620;2022-12-22T02:55:59;46.60;;;26.43;;
22677;SDS011;26259;50.214;18.620;2022-12-22T02:58:46;45.63;;;24.50;;
22677;SDS011;26259;50.214;18.620;2022-12-22T03:01:30;44.80;;;27.70;;
22677;SDS011;26259;50.214;18.620;2022-12-22T03:04:15;45.23;;;28.37;;
22677;SDS011;26259;50.214;18.620;2022-12-22T03:06:59;44.23;;;27.47;;
22677;SDS011;26259;50.214;18.620;2022-12-22T03:09:43;41.83;;;26.03;;
22677;SDS011;26259;50.214;18.620;2022-12-22T03:12:27;37.90;;;22.97;;
22677;SDS011;26259;50.214;18.620;2022-12-22T03:15:11;46.67;;;27.63;;
22677;SDS011;26259;50.214;18.620;2022-12-22T03:18:02;44.93;;;26.87;;
22677;SDS011;26259;50.214;18.620;2022-12-22T03:20:48;45.17;;;25.87;;
22677;SDS011;26259;50.214;18.620;2022-12-22T03:23:32;42.03;;;26.57;;
22677;SDS011;26259;50.214;18.620;2022-12-22T03:26:16;43.90;;;27.53;;
22677;SDS011;26259;50.214;18.620;2022-12-22T03:28:41;42.83;;;27.03;;
22677;SDS011;26259;50.214;18.620;2022-12-22T03:31:07;49.17;;;29.57;;
22677;SDS011;26259;50.214;18.620;2022-12-22T03:33:33;58.77;;;34.00;;
22677;SDS011;26259;50.214;18.620;2022-12-22T03:35:58;64.47;;;42.17;;
22677;SDS011;26259;50.214;18.620;2022-12-22T03:38:25;52.43;;;31.77;;
22677;SDS011;26259;50.214;18.620;2022-12-22T03:40:51;58.27;;;33.13;;
22677;SDS011;26259;50.214;18.620;2022-12-22T03:43:17;54.13;;;31.57;;
22677;SDS011;26259;50.214;18.620;2022-12-22T03:46:10;60.63;;;32.57;;
22677;SDS011;26259;50.214;18.620;2022-12-22T03:48:56;56.90;;;31.73;;
22677;SDS011;26259;50.214;18.620;2022-12-22T03:51:37;56.87;;;32.83;;
22677;SDS011;26259;50.214;18.620;2022-12-22T03:54:17;59.80;;;32.30;;
22677;SDS011;26259;50.214;18.620;2022-12-22T03:56:45;65.00;;;36.20;;
22677;SDS011;26259;50.214;18.620;2022-12-22T03:59:12;57.23;;;32.17;;
22677;SDS011;26259;50.214;18.620;2022-12-22T04:01:39;55.40;;;31.60;;
22677;SDS011;26259;50.214;18.620;2022-12-22T04:04:06;58.40;;;31.77;;
22677;SDS011;26259;50.214;18.620;2022-12-22T04:06:32;59.33;;;32.37;;
22677;SDS011;26259;50.214;18.620;2022-12-22T04:08:58;59.07;;;31.40;;
22677;SDS011;26259;50.214;18.620;2022-12-22T04:11:24;60.70;;;33.53;;
22677;SDS011;26259;50.214;18.620;2022-12-22T04:14:08;62.50;;;33.90;;
22677;SDS011;26259;50.214;18.620;2022-12-22T04:16:33;58.27;;;33.27;;
22677;SDS011;26259;50.214;18.620;2022-12-22T04:18:59;59.47;;;34.53;;
22677;SDS011;26259;50.214;18.620;2022-12-22T04:21:25;62.77;;;35.30;;
22677;SDS011;26259;50.214;18.620;2022-12-22T04:23:51;59.57;;;32.23;;
22677;SDS011;26259;50.214;18.620;2022-12-22T04:26:23;72.37;;;39.60;;
22677;SDS011;26259;50.214;18.620;2022-12-22T04:28:50;81.23;;;44.17;;
22677;SDS011;26259;50.214;18.620;2022-12-22T04:31:16;77.07;;;42.83;;
22677;SDS011;26259;50.214;18.620;2022-12-22T04:33:42;76.97;;;44.97;;
22677;SDS011;26259;50.214;18.620;2022-12-22T04:36:08;75.17;;;41.70;;
22677;SDS011;26259;50.214;18.620;2022-12-22T04:38:34;68.37;;;40.07;;
22677;SDS011;26259;50.214;18.620;2022-12-22T04:41:00;74.57;;;42.93;;
22677;SDS011;26259;50.214;18.620;2022-12-22T04:43:26;71.27;;;40.30;;
22677;SDS011;26259;50.214;18.620;2022-12-22T04:45:54;70.93;;;39.00;;
22677;SDS011;26259;50.214;18.620;2022-12-22T04:48:21;72.13;;;39.60;;
22677;SDS011;26259;50.214;18.620;2022-12-22T04:50:54;78.70;;;46.40;;
22677;SDS011;26259;50.214;18.620;2022-12-22T04:53:21;77.27;;;45.03;;
22677;SDS011;26259;50.214;18.620;2022-12-22T04:55:52;82.60;;;43.47;;
22677;SDS011;26259;50.214;18.620;2022-12-22T04:58:21;74.70;;;39.37;;
22677;SDS011;26259;50.214;18.620;2022-12-22T05:00:47;78.93;;;40.87;;
22677;SDS011;26259;50.214;18.620;2022-12-22T05:03:12;79.27;;;42.73;;
22677;SDS011;26259;50.214;18.620;2022-12-22T05:05:38;69.67;;;40.20;;
22677;SDS011;26259;50.214;18.620;2022-12-22T05:08:04;76.50;;;41.77;;
22677;SDS011;26259;50.214;18.620;2022-12-22T05:10:30;72.40;;;40.47;;
22677;SDS011;26259;50.214;18.620;2022-12-22T05:12:56;70.83;;;40.87;;
22677;SDS011;26259;50.214;18.620;2022-12-22T05:15:22;60.53;;;35.53;;
22677;SDS011;26259;50.214;18.620;2022-12-22T05:17:48;68.67;;;36.40;;
22677;SDS011;26259;50.214;18.620;2022-12-22T05:20:14;65.77;;;37.17;;
22677;SDS011;26259;50.214;18.620;2022-12-22T05:22:40;67.07;;;39.07;;
22677;SDS011;26259;50.214;18.620;2022-12-22T05:25:05;69.87;;;39.20;;
22677;SDS011;26259;50.214;18.620;2022-12-22T05:27:31;66.17;;;37.43;;
22677;SDS011;26259;50.214;18.620;2022-12-22T05:29:57;58.80;;;34.03;;
22677;SDS011;26259;50.214;18.620;2022-12-22T05:32:22;66.10;;;34.83;;
22677;SDS011;26259;50.214;18.620;2022-12-22T05:34:48;60.53;;;32.03;;
22677;SDS011;26259;50.214;18.620;2022-12-22T05:37:14;68.47;;;37.37;;
22677;SDS011;26259;50.214;18.620;2022-12-22T05:39:39;66.77;;;33.87;;
22677;SDS011;26259;50.214;18.620;2022-12-22T05:42:05;73.13;;;38.03;;
22677;SDS011;26259;50.214;18.620;2022-12-22T05:44:30;74.47;;;37.63;;
22677;SDS011;26259;50.214;18.620;2022-12-22T05:46:56;71.27;;;37.27;;
22677;SDS011;26259;50.214;18.620;2022-12-22T05:49:21;66.33;;;36.13;;
22677;SDS011;26259;50.214;18.620;2022-12-22T05:51:47;72.90;;;40.67;;
22677;SDS011;26259;50.214;18.620;2022-12-22T05:54:13;70.00;;;37.67;;
22677;SDS011;26259;50.214;18.620;2022-12-22T05:56:39;73.63;;;39.20;;
22677;SDS011;26259;50.214;18.620;2022-12-22T05:59:05;72.13;;;39.50;;
22677;SDS011;26259;50.214;18.620;2022-12-22T06:01:30;65.83;;;33.03;;
22677;SDS011;26259;50.214;18.620;2022-12-22T06:03:56;67.43;;;36.47;;
22677;SDS011;26259;50.214;18.620;2022-12-22T06:06:21;80.30;;;45.90;;
22677;SDS011;26259;50.214;18.620;2022-12-22T06:08:47;78.33;;;42.80;;
22677;SDS011;26259;50.214;18.620;2022-12-22T06:11:12;67.93;;;36.20;;
22677;SDS011;26259;50.214;18.620;2022-12-22T06:13:42;62.00;;;36.17;;
22677;SDS011;26259;50.214;18.620;2022-12-22T06:16:08;77.93;;;39.77;;
22677;SDS011;26259;50.214;18.620;2022-12-22T06:18:34;65.57;;;35.43;;
22677;SDS011;26259;50.214;18.620;2022-12-22T06:20:59;63.67;;;35.63;;
22677;SDS011;26259;50.214;18.620;2022-12-22T06:23:25;71.97;;;37.33;;
22677;SDS011;26259;50.214;18.620;2022-12-22T06:25:58;62.10;;;34.80;;
22677;SDS011;26259;50.214;18.620;2022-12-22T06:28:25;68.30;;;37.93;;
22677;SDS011;26259;50.214;18.620;2022-12-22T06:30:51;70.53;;;37.27;;
22677;SDS011;26259;50.214;18.620;2022-12-22T06:33:17;61.40;;;35.03;;
22677;SDS011;26259;50.214;18.620;2022-12-22T06:35:42;64.80;;;35.00;;
22677;SDS011;26259;50.214;18.620;2022-12-22T06:38:08;66.83;;;33.97;;
22677;SDS011;26259;50.214;18.620;2022-12-22T06:40:34;62.03;;;31.80;;
22677;SDS011;26259;50.214;18.620;2022-12-22T06:42:59;60.13;;;33.57;;
22677;SDS011;26259;50.214;18.620;2022-12-22T06:45:37;62.97;;;33.53;;
22677;SDS011;26259;50.214;18.620;2022-12-22T06:48:05;63.57;;;33.30;;
22677;SDS011;26259;50.214;18.620;2022-12-22T06:50:31;67.90;;;34.67;;
22677;SDS011;26259;50.214;18.620;2022-12-22T06:52:57;68.97;;;39.17;;
22677;SDS011;26259;50.214;18.620;2022-12-22T06:55:23;69.83;;;37.37;;
22677;SDS011;26259;50.214;18.620;2022-12-22T06:57:49;71.90;;;40.43;;
22677;SDS011;26259;50.214;18.620;2022-12-22T07:00:15;70.07;;;37.80;;
22677;SDS011;26259;50.214;18.620;2022-12-22T07:02:40;69.53;;;35.20;;
22677;SDS011;26259;50.214;18.620;2022-12-22T07:05:06;56.93;;;32.43;;
22677;SDS011;26259;50.214;18.620;2022-12-22T07:07:32;61.50;;;33.43;;
22677;SDS011;26259;50.214;18.620;2022-12-22T07:09:58;66.37;;;32.70;;
22677;SDS011;26259;50.214;18.620;2022-12-22T07:12:23;63.23;;;32.60;;
22677;SDS011;26259;50.214;18.620;2022-12-22T07:14:49;66.40;;;33.83;;
22677;SDS011;26259;50.214;18.620;2022-12-22T07:17:14;56.10;;;29.20;;
22677;SDS011;26259;50.214;18.620;2022-12-22T07:19:40;63.13;;;29.43;;
22677;SDS011;26259;50.214;18.620;2022-12-22T07:22:05;50.73;;;28.00;;
22677;SDS011;26259;50.214;18.620;2022-12-22T07:24:31;49.03;;;27.83;;
22677;SDS011;26259;50.214;18.620;2022-12-22T07:26:57;54.93;;;31.67;;
22677;SDS011;26259;50.214;18.620;2022-12-22T07:29:23;55.70;;;29.53;;
22677;SDS011;26259;50.214;18.620;2022-12-22T07:31:49;55.77;;;30.23;;
22677;SDS011;26259;50.214;18.620;2022-12-22T07:34:15;61.70;;;35.33;;
22677;SDS011;26259;50.214;18.620;2022-12-22T07:36:40;54.73;;;31.70;;
22677;SDS011;26259;50.214;18.620;2022-12-22T07:39:06;55.73;;;27.93;;
22677;SDS011;26259;50.214;18.620;2022-12-22T07:41:32;50.43;;;27.30;;
22677;SDS011;26259;50.214;18.620;2022-12-22T07:44:16;43.87;;;26.50;;
22677;SDS011;26259;50.214;18.620;2022-12-22T07:46:41;45.03;;;24.87;;
22677;SDS011;26259;50.214;18.620;2022-12-22T07:49:08;44.00;;;26.37;;
22677;SDS011;26259;50.214;18.620;2022-12-22T07:51:56;47.23;;;25.97;;
22677;SDS011;26259;50.214;18.620;2022-12-22T07:54:23;42.53;;;25.13;;
22677;SDS011;26259;50.214;18.620;2022-12-22T07:56:49;42.77;;;26.00;;
22677;SDS011;26259;50.214;18.620;2022-12-22T07:59:15;42.60;;;23.50;;
22677;SDS011;26259;50.214;18.620;2022-12-22T08:01:41;47.73;;;26.43;;
22677;SDS011;26259;50.214;18.620;2022-12-22T08:04:07;45.17;;;24.53;;
22677;SDS011;26259;50.214;18.620;2022-12-22T08:06:34;48.43;;;26.50;;
22677;SDS011;26259;50.214;18.620;2022-12-22T08:09:00;38.90;;;23.60;;
22677;SDS011;26259;50.214;18.620;2022-12-22T08:11:26;46.30;;;23.90;;
22677;SDS011;26259;50.214;18.620;2022-12-22T08:13:52;40.83;;;23.10;;
22677;SDS011;26259;50.214;18.620;2022-12-22T08:16:17;38.93;;;21.50;;
22677;SDS011;26259;50.214;18.620;2022-12-22T08:18:44;38.90;;;23.40;;
22677;SDS011;26259;50.214;18.620;2022-12-22T08:21:10;40.10;;;23.37;;
22677;SDS011;26259;50.214;18.620;2022-12-22T08:23:35;41.80;;;23.30;;
22677;SDS011;26259;50.214;18.620;2022-12-22T08:28:43;34.93;;;21.07;;
22677;SDS011;26259;50.214;18.620;2022-12-22T08:31:18;36.17;;;19.70;;
22677;SDS011;26259;50.214;18.620;2022-12-22T08:33:44;34.20;;;20.67;;
22677;SDS011;26259;50.214;18.620;2022-12-22T08:36:11;35.43;;;20.90;;
22677;SDS011;26259;50.214;18.620;2022-12-22T08:38:37;33.27;;;18.37;;
22677;SDS011;26259;50.214;18.620;2022-12-22T08:41:06;31.77;;;19.23;;
22677;SDS011;26259;50.214;18.620;2022-12-22T08:43:37;39.27;;;23.93;;
22677;SDS011;26259;50.214;18.620;2022-12-22T08:46:02;32.90;;;18.77;;
22677;SDS011;26259;50.214;18.620;2022-12-22T08:48:28;31.60;;;18.27;;
22677;SDS011;26259;50.214;18.620;2022-12-22T08:50:54;32.83;;;18.93;;
22677;SDS011;26259;50.214;18.620;2022-12-22T08:53:19;31.37;;;18.73;;
22677;SDS011;26259;50.214;18.620;2022-12-22T08:55:51;29.27;;;18.10;;
22677;SDS011;26259;50.214;18.620;2022-12-22T08:58:20;31.60;;;19.03;;
22677;SDS011;26259;50.214;18.620;2022-12-22T09:00:46;32.17;;;18.10;;
22677;SDS011;26259;50.214;18.620;2022-12-22T09:03:12;29.10;;;17.90;;
22677;SDS011;26259;50.214;18.620;2022-12-22T09:05:38;34.53;;;18.20;;
22677;SDS011;26259;50.214;18.620;2022-12-22T09:08:05;35.93;;;18.90;;
22677;SDS011;26259;50.214;18.620;2022-12-22T09:10:31;29.43;;;17.93;;
22677;SDS011;26259;50.214;18.620;2022-12-22T09:12:57;39.70;;;22.47;;
22677;SDS011;26259;50.214;18.620;2022-12-22T09:15:23;37.73;;;21.87;;
22677;SDS011;26259;50.214;18.620;2022-12-22T09:17:49;38.97;;;21.77;;
22677;SDS011;26259;50.214;18.620;2022-12-22T09:20:14;32.10;;;20.30;;
22677;SDS011;26259;50.214;18.620;2022-12-22T09:22:40;35.33;;;20.77;;
22677;SDS011;26259;50.214;18.620;2022-12-22T09:25:05;35.63;;;19.97;;
22677;SDS011;26259;50.214;18.620;2022-12-22T09:27:31;35.70;;;20.33;;
22677;SDS011;26259;50.214;18.620;2022-12-22T09:29:57;38.93;;;22.87;;
22677;SDS011;26259;50.214;18.620;2022-12-22T09:32:22;38.93;;;21.27;;
22677;SDS011;26259;50.214;18.620;2022-12-22T09:34:48;34.53;;;20.17;;
22677;SDS011;26259;50.214;18.620;2022-12-22T09:37:14;36.03;;;19.83;;
22677;SDS011;26259;50.214;18.620;2022-12-22T09:39:40;30.60;;;18.20;;
22677;SDS011;26259;50.214;18.620;2022-12-22T09:42:11;37.47;;;20.63;;
22677;SDS011;26259;50.214;18.620;2022-12-22T09:44:42;38.70;;;20.80;;
22677;SDS011;26259;50.214;18.620;2022-12-22T09:47:31;30.23;;;19.27;;
22677;SDS011;26259;50.214;18.620;2022-12-22T09:49:59;30.77;;;17.53;;
22677;SDS011;26259;50.214;18.620;2022-12-22T09:54:58;25.67;;;15.87;;
22677;SDS011;26259;50.214;18.620;2022-12-22T09:57:27;32.77;;;18.13;;
22677;SDS011;26259;50.214;18.620;2022-12-22T09:59:55;32.70;;;19.80;;
22677;SDS011;26259;50.214;18.620;2022-12-22T10:05:23;34.93;;;19.87;;
22677;SDS011;26259;50.214;18.620;2022-12-22T10:08:00;40.53;;;23.53;;
22677;SDS011;26259;50.214;18.620;2022-12-22T10:10:33;32.93;;;19.93;;
22677;SDS011;26259;50.214;18.620;2022-12-22T10:13:00;33.57;;;20.73;;
22677;SDS011;26259;50.214;18.620;2022-12-22T10:15:33;34.93;;;19.90;;
22677;SDS011;26259;50.214;18.620;2022-12-22T10:18:11;35.23;;;19.40;;
22677;SDS011;26259;50.214;18.620;2022-12-22T10:20:40;34.03;;;19.53;;
22677;SDS011;26259;50.214;18.620;2022-12-22T10:26:22;25.43;;;15.67;;
22677;SDS011;26259;50.214;18.620;2022-12-22T10:29:14;25.13;;;17.37;;
22677;SDS011;26259;50.214;18.620;2022-12-22T10:32:00;26.20;;;17.77;;
22677;SDS011;26259;50.214;18.620;2022-12-22T10:34:26;32.50;;;18.87;;
22677;SDS011;26259;50.214;18.620;2022-12-22T10:36:54;31.00;;;20.33;;
22677;SDS011;26259;50.214;18.620;2022-12-22T10:39:26;25.00;;;15.90;;
22677;SDS011;26259;50.214;18.620;2022-12-22T10:41:58;26.37;;;15.67;;
22677;SDS011;26259;50.214;18.620;2022-12-22T10:44:27;26.13;;;16.00;;
22677;SDS011;26259;50.214;18.620;2022-12-22T10:46:55;30.80;;;17.73;;
22677;SDS011;26259;50.214;18.620;2022-12-22T10:49:35;53.70;;;32.60;;
22677;SDS011;26259;50.214;18.620;2022-12-22T10:52:20;51.63;;;33.77;;
22677;SDS011;26259;50.214;18.620;2022-12-22T10:54:48;19.57;;;13.13;;
22677;SDS011;26259;50.214;18.620;2022-12-22T11:02:52;28.17;;;15.77;;
22677;SDS011;26259;50.214;18.620;2022-12-22T11:05:19;31.27;;;23.23;;
22677;SDS011;26259;50.214;18.620;2022-12-22T11:07:45;52.17;;;37.33;;
22677;SDS011;26259;50.214;18.620;2022-12-22T11:26:42;35.23;;;21.37;;
22677;SDS011;26259;50.214;18.620;2022-12-22T11:29:21;45.27;;;26.47;;
22677;SDS011;26259;50.214;18.620;2022-12-22T11:40:07;36.20;;;21.83;;
22677;SDS011;26259;50.214;18.620;2022-12-22T11:56:49;29.73;;;17.23;;
22677;SDS011;26259;50.214;18.620;2022-12-22T11:59:43;27.43;;;16.70;;
22677;SDS011;26259;50.214;18.620;2022-12-22T12:05:17;32.77;;;19.13;;
22677;SDS011;26259;50.214;18.620;2022-12-22T12:10:46;31.17;;;19.47;;
22677;SDS011;26259;50.214;18.620;2022-12-22T12:15:55;39.57;;;24.30;;
22677;SDS011;26259;50.214;18.620;2022-12-22T12:18:58;40.83;;;24.53;;
22677;SDS011;26259;50.214;18.620;2022-12-22T12:21:48;42.30;;;25.10;;
22677;SDS011;26259;50.214;18.620;2022-12-22T12:24:32;45.53;;;25.40;;
22677;SDS011;26259;50.214;18.620;2022-12-22T12:30:14;49.70;;;30.63;;
22677;SDS011;26259;50.214;18.620;2022-12-22T12:38:02;47.93;;;28.17;;
22677;SDS011;26259;50.214;18.620;2022-12-22T12:43:18;43.10;;;25.57;;
22677;SDS011;26259;50.214;18.620;2022-12-22T12:45:47;47.63;;;27.03;;
22677;SDS011;26259;50.214;18.620;2022-12-22T12:50:45;49.90;;;32.63;;
22677;SDS011;26259;50.214;18.620;2022-12-22T12:53:12;46.63;;;25.90;;
22677;SDS011;26259;50.214;18.620;2022-12-22T12:58:04;47.17;;;27.20;;
22677;SDS011;26259;50.214;18.620;2022-12-22T13:03:03;48.03;;;27.00;;
22677;SDS011;26259;50.214;18.620;2022-12-22T13:16:33;41.80;;;23.60;;
22677;SDS011;26259;50.214;18.620;2022-12-22T13:21:00;38.80;;;23.00;;
22677;SDS011;26259;50.214;18.620;2022-12-22T13:26:28;32.10;;;19.67;;
22677;SDS011;26259;50.214;18.620;2022-12-22T13:29:02;35.63;;;19.10;;
22677;SDS011;26259;50.214;18.620;2022-12-22T13:31:58;38.40;;;20.07;;
22677;SDS011;26259;50.214;18.620;2022-12-22T13:37:25;36.07;;;21.60;;
22677;SDS011;26259;50.214;18.620;2022-12-22T13:42:49;36.90;;;20.77;;
22677;SDS011;26259;50.214;18.620;2022-12-22T13:45:33;34.40;;;20.37;;
22677;SDS011;26259;50.214;18.620;2022-12-22T13:48:14;31.90;;;19.00;;
22677;SDS011;26259;50.214;18.620;2022-12-22T13:50:46;31.43;;;18.97;;
22677;SDS011;26259;50.214;18.620;2022-12-22T13:53:16;32.07;;;17.20;;
22677;SDS011;26259;50.214;18.620;2022-12-22T13:55:54;31.30;;;17.90;;
22677;SDS011;26259;50.214;18.620;2022-12-22T14:00:59;28.50;;;17.53;;
22677;SDS011;26259;50.214;18.620;2022-12-22T14:03:34;27.50;;;17.53;;
22677;SDS011;26259;50.214;18.620;2022-12-22T14:06:00;32.03;;;19.07;;
22677;SDS011;26259;50.214;18.620;2022-12-22T14:08:26;35.30;;;20.50;;
22677;SDS011;26259;50.214;18.620;2022-12-22T14:10:52;34.10;;;21.20;;
22677;SDS011;26259;50.214;18.620;2022-12-22T14:13:21;34.57;;;18.87;;
22677;SDS011;26259;50.214;18.620;2022-12-22T14:16:00;30.10;;;18.37;;
22677;SDS011;26259;50.214;18.620;2022-12-22T14:18:26;34.53;;;18.23;;
22677;SDS011;26259;50.214;18.620;2022-12-22T14:20:53;40.13;;;21.07;;
22677;SDS011;26259;50.214;18.620;2022-12-22T14:23:20;45.73;;;23.23;;
22677;SDS011;26259;50.214;18.620;2022-12-22T14:25:50;46.37;;;24.60;;
22677;SDS011;26259;50.214;18.620;2022-12-22T14:28:22;61.63;;;29.53;;
22677;SDS011;26259;50.214;18.620;2022-12-22T14:30:52;55.70;;;27.10;;
22677;SDS011;26259;50.214;18.620;2022-12-22T14:35:50;47.50;;;24.70;;
22677;SDS011;26259;50.214;18.620;2022-12-22T14:38:27;44.07;;;24.13;;
22677;SDS011;26259;50.214;18.620;2022-12-22T14:40:53;35.57;;;21.33;;
22677;SDS011;26259;50.214;18.620;2022-12-22T14:45:45;34.20;;;19.83;;
22677;SDS011;26259;50.214;18.620;2022-12-22T14:48:18;34.87;;;19.13;;
22677;SDS011;26259;50.214;18.620;2022-12-22T14:50:58;36.23;;;19.07;;
22677;SDS011;26259;50.214;18.620;2022-12-22T14:53:27;40.73;;;21.50;;
22677;SDS011;26259;50.214;18.620;2022-12-22T14:56:03;37.63;;;20.00;;
22677;SDS011;26259;50.214;18.620;2022-12-22T14:58:35;38.13;;;22.40;;
22677;SDS011;26259;50.214;18.620;2022-12-22T15:01:23;35.97;;;18.60;;
22677;SDS011;26259;50.214;18.620;2022-12-22T15:04:34;38.93;;;19.57;;
22677;SDS011;26259;50.214;18.620;2022-12-22T15:06:42;37.10;;;19.97;;
22677;SDS011;26259;50.214;18.620;2022-12-22T15:11:45;47.57;;;26.93;;
22677;SDS011;26259;50.214;18.620;2022-12-22T15:14:18;42.53;;;24.37;;
22677;SDS011;26259;50.214;18.620;2022-12-22T15:16:46;43.97;;;25.73;;
22677;SDS011;26259;50.214;18.620;2022-12-22T15:19:15;49.43;;;26.80;;
22677;SDS011;26259;50.214;18.620;2022-12-22T15:21:42;62.33;;;33.63;;
22677;SDS011;26259;50.214;18.620;2022-12-22T15:24:13;44.70;;;24.57;;
22677;SDS011;26259;50.214;18.620;2022-12-22T15:26:40;79.17;;;41.83;;
22677;SDS011;26259;50.214;18.620;2022-12-22T15:29:06;52.53;;;27.87;;
22677;SDS011;26259;50.214;18.620;2022-12-22T15:31:32;49.33;;;23.90;;
22677;SDS011;26259;50.214;18.620;2022-12-22T15:33:59;47.50;;;25.10;;
22677;SDS011;26259;50.214;18.620;2022-12-22T15:36:27;43.67;;;24.67;;
22677;SDS011;26259;50.214;18.620;2022-12-22T15:38:53;32.13;;;18.37;;
22677;SDS011;26259;50.214;18.620;2022-12-22T15:41:18;33.40;;;19.27;;
22677;SDS011;26259;50.214;18.620;2022-12-22T15:43:44;42.40;;;28.67;;
22677;SDS011;26259;50.214;18.620;2022-12-22T15:46:10;43.03;;;24.23;;
22677;SDS011;26259;50.214;18.620;2022-12-22T15:48:40;42.50;;;23.73;;
22677;SDS011;26259;50.214;18.620;2022-12-22T15:51:08;33.20;;;18.43;;
22677;SDS011;26259;50.214;18.620;2022-12-22T15:53:48;41.60;;;21.50;;
22677;SDS011;26259;50.214;18.620;2022-12-22T15:56:17;37.30;;;22.00;;
22677;SDS011;26259;50.214;18.620;2022-12-22T15:58:45;37.30;;;19.87;;
22677;SDS011;26259;50.214;18.620;2022-12-22T16:01:12;36.70;;;20.77;;
22677;SDS011;26259;50.214;18.620;2022-12-22T16:03:37;37.77;;;20.67;;
22677;SDS011;26259;50.214;18.620;2022-12-22T16:06:03;38.03;;;21.63;;
22677;SDS011;26259;50.214;18.620;2022-12-22T16:08:34;39.13;;;21.73;;
22677;SDS011;26259;50.214;18.620;2022-12-22T16:11:02;39.37;;;20.10;;
22677;SDS011;26259;50.214;18.620;2022-12-22T16:13:28;47.00;;;21.63;;
22677;SDS011;26259;50.214;18.620;2022-12-22T16:15:54;45.40;;;22.67;;
22677;SDS011;26259;50.214;18.620;2022-12-22T16:18:20;47.47;;;23.90;;
22677;SDS011;26259;50.214;18.620;2022-12-22T16:20:46;44.53;;;22.13;;
22677;SDS011;26259;50.214;18.620;2022-12-22T16:23:17;48.47;;;25.07;;
22677;SDS011;26259;50.214;18.620;2022-12-22T16:25:45;50.07;;;25.77;;
22677;SDS011;26259;50.214;18.620;2022-12-22T16:28:13;44.73;;;23.73;;
22677;SDS011;26259;50.214;18.620;2022-12-22T16:30:41;43.40;;;24.13;;
22677;SDS011;26259;50.214;18.620;2022-12-22T16:33:09;52.87;;;25.27;;
22677;SDS011;26259;50.214;18.620;2022-12-22T16:35:36;52.20;;;25.77;;
22677;SDS011;26259;50.214;18.620;2022-12-22T16:38:02;46.33;;;25.47;;
22677;SDS011;26259;50.214;18.620;2022-12-22T16:40:28;50.23;;;25.30;;
22677;SDS011;26259;50.214;18.620;2022-12-22T16:42:58;54.47;;;25.33;;
22677;SDS011;26259;50.214;18.620;2022-12-22T16:45:30;49.73;;;25.90;;
22677;SDS011;26259;50.214;18.620;2022-12-22T16:47:59;49.27;;;26.43;;
22677;SDS011;26259;50.214;18.620;2022-12-22T16:50:29;43.43;;;23.10;;